createdAt,value
2019-01-20T00:02:11.813Z,-2.23
2019-01-20T00:06:18.678Z,-2.20
2019-01-20T00:10:27.445Z,-2.16
2019-01-20T00:14:34.296Z,-2.37
2019-01-20T00:18:41.516Z,-2.36
2019-01-20T00:22:48.830Z,-2.38
2019-01-20T00:26:56.278Z,-2.37
2019-01-20T00:31:05.700Z,-2.31
2019-01-20T00:35:16.107Z,-2.30
2019-01-20T00:39:24.802Z,-2.42
2019-01-20T00:43:35.288Z,-2.46
2019-01-20T00:47:47.347Z,-2.40
2019-01-20T00:51:54.264Z,-2.33
2019-01-20T00:56:04.274Z,-2.36
2019-01-20T01:00:27.426Z,-2.37
2019-01-20T01:04:34.643Z,-2.32
2019-01-20T01:08:50.793Z,-2.42
2019-01-20T01:13:07.096Z,-2.36
2019-01-20T01:17:16.428Z,-2.46
2019-01-20T01:21:24.120Z,-2.48
2019-01-20T01:25:32.373Z,-2.49
2019-01-20T01:29:39.366Z,-2.51
2019-01-20T01:33:54.060Z,-2.36
2019-01-20T01:38:03.355Z,-2.55
2019-01-20T01:42:10.408Z,-2.61
2019-01-20T01:46:17.413Z,-2.49
2019-01-20T01:50:24.300Z,-2.48
2019-01-20T01:54:31.265Z,-2.51
2019-01-20T01:58:39.271Z,-2.48
2019-01-20T02:02:46.545Z,-2.47
2019-01-20T02:06:54.558Z,-2.46
2019-01-20T02:11:01.679Z,-2.50
2019-01-20T02:15:14.141Z,-2.51
2019-01-20T02:19:21.337Z,-2.66
2019-01-20T02:23:28.318Z,-2.50
2019-01-20T02:27:35.622Z,-2.61
2019-01-20T02:31:42.624Z,-2.66
2019-01-20T02:35:49.595Z,-2.68
2019-01-20T02:39:56.586Z,-2.74
2019-01-20T02:44:03.602Z,-2.70
2019-01-20T02:48:10.678Z,-2.69
2019-01-20T02:52:18.939Z,-2.64
2019-01-20T02:56:25.938Z,-2.67
2019-01-20T03:00:34.540Z,-2.60
2019-01-20T03:04:41.752Z,-2.62
2019-01-20T03:08:51.363Z,-2.69
2019-01-20T03:12:58.448Z,-2.68
2019-01-20T03:17:05.481Z,-2.69
2019-01-20T03:21:12.465Z,-2.84
2019-01-20T03:25:19.753Z,-2.70
2019-01-20T03:29:28.690Z,-2.70
2019-01-20T03:33:38.088Z,-2.79
2019-01-20T03:37:45.239Z,-2.86
2019-01-20T03:41:52.954Z,-2.84
2019-01-20T03:46:00.074Z,-2.79
2019-01-20T03:50:08.142Z,-2.90
2019-01-20T03:54:15.379Z,-2.82
2019-01-20T03:58:22.506Z,-2.77
2019-01-20T04:02:29.753Z,-2.84
2019-01-20T04:06:36.843Z,-2.77
2019-01-20T04:10:44.310Z,-2.75
2019-01-20T04:14:51.474Z,-2.84
2019-01-20T04:18:58.634Z,-2.87
2019-01-20T04:23:05.854Z,-2.85
2019-01-20T04:27:12.898Z,-2.85
2019-01-20T04:31:20.298Z,-2.82
2019-01-20T04:35:28.211Z,-2.88
2019-01-20T04:39:35.257Z,-2.74
2019-01-20T04:43:42.498Z,-2.85
2019-01-20T04:47:49.805Z,-2.84
2019-01-20T04:51:57.232Z,-2.99
2019-01-20T04:56:04.736Z,-2.97
2019-01-20T05:00:22.414Z,-3.10
2019-01-20T05:04:29.662Z,-3.08
2019-01-20T05:08:36.773Z,-3.27
2019-01-20T05:12:44.178Z,-3.31
2019-01-20T05:16:51.485Z,-3.28
2019-01-20T05:20:58.618Z,-3.48
2019-01-20T05:25:07.864Z,-3.38
2019-01-20T05:29:14.840Z,-3.31
2019-01-20T05:33:21.969Z,-3.43
2019-01-20T05:37:29.166Z,-3.47
2019-01-20T05:41:36.288Z,-3.42
2019-01-20T05:45:43.289Z,-3.48
2019-01-20T05:49:50.464Z,-3.53
2019-01-20T05:53:57.595Z,-3.47
2019-01-20T05:58:04.739Z,-3.59
2019-01-20T06:02:11.733Z,-3.63
2019-01-20T06:06:18.819Z,-3.57
2019-01-20T06:10:28.275Z,-3.71
2019-01-20T06:14:35.199Z,-3.67
2019-01-20T06:18:42.350Z,-3.80
2019-01-20T06:22:49.504Z,-3.82
2019-01-20T06:27:02.114Z,-3.79
2019-01-20T06:31:09.296Z,-3.94
2019-01-20T06:35:16.345Z,-3.85
2019-01-20T06:39:23.502Z,-3.81
2019-01-20T06:43:30.425Z,-3.67
2019-01-20T06:47:37.826Z,-3.88
2019-01-20T06:51:45.258Z,-3.86
2019-01-20T06:55:52.554Z,-4.06
2019-01-20T06:59:59.796Z,-3.96
2019-01-20T07:04:07.009Z,-4.18
2019-01-20T07:08:14.328Z,-4.11
2019-01-20T07:12:21.550Z,-4.06
2019-01-20T07:16:28.510Z,-4.19
2019-01-20T07:20:35.769Z,-3.98
2019-01-20T07:24:42.718Z,-4.11
2019-01-20T07:28:49.959Z,-3.96
2019-01-20T07:32:57.024Z,-4.00
2019-01-20T07:37:04.242Z,-3.92
2019-01-20T07:41:13.926Z,-4.01
2019-01-20T07:45:21.128Z,-4.05
2019-01-20T07:49:28.508Z,-3.96
2019-01-20T07:53:35.532Z,-3.99
2019-01-20T07:57:42.575Z,-3.94
2019-01-20T08:01:49.542Z,-3.77
2019-01-20T08:05:56.467Z,-3.79
2019-01-20T08:10:06.530Z,-3.71
2019-01-20T08:14:13.521Z,-3.55
2019-01-20T08:18:20.586Z,-3.52
2019-01-20T08:22:29.446Z,-3.35
2019-01-20T08:26:36.962Z,-3.10
2019-01-20T08:30:44.114Z,-2.83
2019-01-20T08:34:54.390Z,-2.32
2019-01-20T08:39:01.525Z,-1.99
2019-01-20T08:43:10.887Z,-1.70
2019-01-20T08:48:03.245Z,-1.96
2019-01-20T08:52:11.482Z,-1.71
2019-01-20T08:56:20.649Z,-1.40
2019-01-20T09:00:27.778Z,-1.35
2019-01-20T09:04:36.508Z,-1.16
2019-01-20T09:08:45.350Z,-0.76
2019-01-20T09:12:53.176Z,-0.95
2019-01-20T09:17:01.445Z,-0.78
2019-01-20T09:21:08.587Z,-1.06
2019-01-20T09:25:30.176Z,-0.12
2019-01-20T09:29:47.710Z,-0.63
2019-01-20T09:34:00.218Z,-0.15
2019-01-20T09:38:09.964Z,-0.40
2019-01-20T09:42:32.627Z,-0.10
2019-01-20T09:46:49.282Z,0.26
2019-01-20T09:51:07.152Z,-0.62
2019-01-20T09:55:22.232Z,-0.06
2019-01-20T09:59:30.033Z,0.34
2019-01-20T10:03:38.677Z,-0.29
2019-01-20T10:07:46.952Z,-0.19
2019-01-20T10:11:54.773Z,1.30
2019-01-20T10:16:02.247Z,-0.21
2019-01-20T10:20:23.496Z,0.04
2019-01-20T10:24:33.884Z,-0.28
2019-01-20T10:28:42.201Z,0.24
2019-01-20T10:32:49.351Z,-0.46
2019-01-20T10:37:00.063Z,0.29
2019-01-20T10:41:07.542Z,-0.29
2019-01-20T10:45:15.143Z,0.94
2019-01-20T10:49:29.928Z,1.30
2019-01-20T10:53:40.166Z,1.41
2019-01-20T10:57:47.157Z,0.82
2019-01-20T11:01:54.220Z,0.76
2019-01-20T11:06:03.298Z,0.64
2019-01-20T11:10:16.125Z,0.76
2019-01-20T11:14:23.616Z,0.65
2019-01-20T11:18:31.227Z,0.44
2019-01-20T11:22:38.838Z,0.58
2019-01-20T11:26:45.900Z,0.95
2019-01-20T11:30:53.096Z,0.73
2019-01-20T11:35:00.091Z,1.62
2019-01-20T11:39:11.805Z,0.54
2019-01-20T11:43:19.072Z,1.29
2019-01-20T11:47:27.400Z,1.36
2019-01-20T11:51:35.122Z,0.88
2019-01-20T11:55:42.468Z,0.89
2019-01-20T11:59:49.613Z,1.66
2019-01-20T12:03:57.659Z,1.82
2019-01-20T12:08:05.903Z,1.20
2019-01-20T12:12:15.568Z,1.44
2019-01-20T12:16:23.511Z,1.18
2019-01-20T12:20:31.104Z,2.64
2019-01-20T12:24:38.805Z,2.46
2019-01-20T12:28:46.728Z,2.41
2019-01-20T12:32:54.864Z,3.66
2019-01-20T12:37:04.310Z,2.37
2019-01-20T12:41:11.713Z,3.01
2019-01-20T12:45:20.611Z,3.84
2019-01-20T12:49:28.363Z,3.22
2019-01-20T12:53:36.358Z,4.44
2019-01-20T12:57:44.489Z,2.89
2019-01-20T13:01:52.085Z,4.20
2019-01-20T13:06:00.064Z,5.04
2019-01-20T13:10:09.349Z,3.87
2019-01-20T13:14:18.823Z,3.55
2019-01-20T13:18:25.753Z,3.12
2019-01-20T13:22:35.523Z,3.47
2019-01-20T13:26:44.261Z,3.28
2019-01-20T13:30:51.775Z,2.66
2019-01-20T13:34:58.916Z,2.71
2019-01-20T13:39:10.946Z,2.13
2019-01-20T13:43:20.371Z,1.90
2019-01-20T13:47:27.956Z,1.78
2019-01-20T13:51:36.300Z,1.89
2019-01-20T13:55:43.415Z,1.84
2019-01-20T13:59:51.719Z,1.74
2019-01-20T14:03:58.748Z,1.61
2019-01-20T14:08:08.262Z,1.63
2019-01-20T14:12:15.930Z,1.55
2019-01-20T14:16:23.147Z,1.55
2019-01-20T14:20:30.379Z,1.38
2019-01-20T14:24:39.574Z,1.33
2019-01-20T14:28:46.988Z,1.43
2019-01-20T14:33:01.786Z,1.26
2019-01-20T14:37:16.821Z,1.37
2019-01-20T14:41:24.032Z,1.28
2019-01-20T14:45:31.079Z,1.33
2019-01-20T14:49:37.942Z,1.38
2019-01-20T14:53:45.247Z,1.25
2019-01-20T14:57:52.428Z,1.23
2019-01-20T15:02:01.371Z,1.21
2019-01-20T15:06:19.148Z,1.16
2019-01-20T15:10:28.613Z,1.02
2019-01-20T15:14:36.338Z,1.14
2019-01-20T15:18:45.199Z,1.08
2019-01-20T15:22:53.060Z,1.08
2019-01-20T15:26:59.971Z,1.04
2019-01-20T15:31:06.876Z,1.05
2019-01-20T15:35:15.369Z,1.02
2019-01-20T15:39:23.760Z,0.98
2019-01-20T15:43:30.966Z,0.85
2019-01-20T15:47:38.168Z,0.74
2019-01-20T15:51:45.476Z,0.71
2019-01-20T15:55:53.544Z,0.61
2019-01-20T16:00:00.482Z,0.54
2019-01-20T16:04:09.538Z,0.44
2019-01-20T16:08:16.974Z,0.34
2019-01-20T16:12:25.655Z,0.27
2019-01-20T16:16:32.745Z,0.28
2019-01-20T16:20:40.860Z,0.22
2019-01-20T16:24:52.287Z,0.21
2019-01-20T16:29:00.192Z,0.17
2019-01-20T16:33:07.561Z,0.48
2019-01-20T16:37:14.558Z,0.17
2019-01-20T16:41:21.654Z,0.10
2019-01-20T16:45:42.572Z,0.00
2019-01-20T16:49:50.198Z,0.01
2019-01-20T16:53:58.121Z,-0.07
2019-01-20T16:58:06.804Z,-0.17
2019-01-20T17:02:15.805Z,-0.20
2019-01-20T17:06:24.605Z,-0.22
2019-01-20T17:10:35.430Z,-0.27
2019-01-20T17:14:43.683Z,-0.29
2019-01-20T17:18:54.058Z,-0.30
2019-01-20T17:23:02.631Z,-0.27
2019-01-20T17:27:14.246Z,-0.30
2019-01-20T17:31:21.414Z,-0.30
2019-01-20T17:35:28.469Z,-0.33
2019-01-20T17:39:38.838Z,-0.34
2019-01-20T17:43:45.895Z,-0.40
2019-01-20T17:47:54.700Z,-0.40
2019-01-20T17:52:02.329Z,-0.06
2019-01-20T17:56:10.029Z,-0.34
2019-01-20T18:00:23.240Z,0.17
2019-01-20T18:04:32.518Z,-0.42
2019-01-20T18:08:46.684Z,-0.19
2019-01-20T18:12:54.210Z,-0.25
2019-01-20T18:17:01.573Z,0.17
2019-01-20T18:21:09.478Z,-0.33
2019-01-20T18:25:17.731Z,-0.38
2019-01-20T18:29:25.973Z,-0.45
2019-01-20T18:33:33.408Z,-0.54
2019-01-20T18:37:57.999Z,-0.60
2019-01-20T18:42:11.051Z,-0.61
2019-01-20T18:46:22.082Z,-0.63
2019-01-20T18:50:33.197Z,-0.20
2019-01-20T18:54:40.477Z,-0.46
2019-01-20T18:58:47.635Z,-0.55
2019-01-20T19:02:54.929Z,-0.64
2019-01-20T19:07:02.002Z,-0.67
2019-01-20T19:11:09.534Z,-0.68
2019-01-20T19:15:28.363Z,-0.70
2019-01-20T19:19:39.150Z,-0.78
2019-01-20T19:23:48.746Z,-0.81
2019-01-20T19:27:58.891Z,-0.83
2019-01-20T19:32:06.450Z,-0.87
2019-01-20T19:36:21.640Z,-0.91
2019-01-20T19:40:30.646Z,-0.95
2019-01-20T19:44:58.611Z,-0.95
2019-01-20T19:49:11.478Z,-1.02
2019-01-20T19:53:19.005Z,-1.06
2019-01-20T19:57:27.257Z,-1.11
2019-01-20T20:01:40.470Z,-1.22
2019-01-20T20:05:52.918Z,-1.25
2019-01-20T20:10:13.229Z,-1.22
2019-01-20T20:14:27.905Z,-1.24
2019-01-20T20:18:39.443Z,-1.32
2019-01-20T20:22:57.240Z,-1.31
2019-01-20T20:27:13.228Z,-1.36
2019-01-20T20:31:17.243Z,-1.41
2019-01-20T20:35:27.731Z,-1.45
2019-01-20T20:39:39.441Z,-1.48
2019-01-20T20:44:12.035Z,-1.59
2019-01-20T20:48:35.614Z,-1.67
2019-01-20T20:52:46.181Z,-1.74
2019-01-20T20:57:03.002Z,-1.84
2019-01-20T21:01:16.306Z,-1.83
2019-01-20T21:05:27.583Z,-1.86
2019-01-20T21:09:46.291Z,-2.04
2019-01-20T21:13:59.114Z,-1.96
2019-01-20T21:18:09.868Z,-2.01
2019-01-20T21:22:17.620Z,-1.98
2019-01-20T21:26:26.456Z,-1.98
2019-01-20T21:30:33.836Z,-1.93
2019-01-20T21:34:48.075Z,-1.97
2019-01-20T21:39:01.007Z,-2.15
2019-01-20T21:43:18.447Z,-2.24
2019-01-20T21:47:27.164Z,-2.24
2019-01-20T21:51:37.655Z,-1.57
2019-01-20T21:55:54.573Z,-1.14
2019-01-20T22:00:09.999Z,-1.48
2019-01-20T22:04:30.748Z,-1.35
2019-01-20T22:08:38.205Z,-1.76
2019-01-20T22:12:45.426Z,-2.04
2019-01-20T22:16:53.148Z,-2.12
2019-01-20T22:21:00.324Z,-2.11
2019-01-20T22:25:10.728Z,-2.14
2019-01-20T22:29:24.989Z,-2.25
2019-01-20T22:33:33.391Z,-2.24
2019-01-20T22:37:42.192Z,-2.30
2019-01-20T22:41:56.230Z,-2.22
2019-01-20T22:46:12.707Z,-2.33
2019-01-20T22:50:20.012Z,-2.46
2019-01-20T22:54:27.552Z,-2.45
2019-01-20T22:58:36.681Z,-2.42
2019-01-20T23:02:43.856Z,-2.58
2019-01-20T23:06:50.925Z,-2.60
2019-01-20T23:10:59.206Z,-2.70
2019-01-20T23:15:06.829Z,-2.57
2019-01-20T23:19:13.875Z,-2.72
2019-01-20T23:23:20.913Z,-2.71
2019-01-20T23:27:27.897Z,-2.78
2019-01-20T23:31:34.999Z,-2.78
2019-01-20T23:35:42.036Z,-2.77
2019-01-20T23:39:48.929Z,-2.80
2019-01-20T23:43:57.034Z,-2.88
2019-01-20T23:48:04.327Z,-2.87
2019-01-20T23:52:11.440Z,-2.83
2019-01-20T23:56:18.418Z,-2.75
